Página principal
METAR-TAF:

METAR-TAF

Aeroportos :

Aeroporto Internacional de Cartum

Cartum, Sudão

latitude: 15-36N, longitude: 032-33E, altura: 382 m

Observação actual do tempo

O boletim foi feito há 29 minutos, às 16:00 UTC
Vento 10 kt de nor-nordeste
Temperatura 28°C
Humidade 13%
Pressão 1013 hPa
Visibilidade 10 km ou mais
sem nuvens abaixo de 1500 metros e sem cumulonimbus

METAR: HSSS 151600Z 02010KT CAVOK 28/M03 Q1013 NOSIG

Hora: 19:29 (16:29 UTC)

Previsão

O boletim foi feito há 5 horas e 29 minutos, às 11:00 UTC
Previsão válida de 15 às 12 UTC a 16 às 18 UTC
Vento 14 kt de nor-nordeste com rajadas de 24 kt
Visibilidade 10 km ou mais
sem nuvens abaixo de 1500 metros e sem cumulonimbus
Temporariamente
de 16 às 06 UTC a 16 às 09 UTC
Visibilidade: 6000 m

TAF: HSSS 151100Z 1512/1618 03014G24KT CAVOK TEMPO 1606/1609 6000 NSC

Observações e previsões do tempo de mais de 4000 aeroportos (mensagens METAR e TAF).

As estações disponíveis são os pontos amarelos e vermelhos sobre o mapa.

Mova o rato sobre o mapa para ver o nome da estação.

Depois clique no ponto para visualizar as observações e previsões meteorológicas.

Para alterar o mapa : clique nos botões verdes com uma cruz preta para aumentar o zoom; no botão verde com uma pitada de zoom; ou nas setas verdes para mapas adjacentes.


METAR-TAF: